createdAt,value
2022-12-18T00:00:00.370Z,17.40
2022-12-18T00:01:00.842Z,17.40
2022-12-18T00:02:00.445Z,17.40
2022-12-18T00:03:00.454Z,17.40
2022-12-18T00:04:01.584Z,17.40
2022-12-18T00:05:00.385Z,17.40
2022-12-18T00:06:00.340Z,17.40
2022-12-18T00:07:00.346Z,17.40
2022-12-18T00:08:00.361Z,17.40
2022-12-18T00:09:00.501Z,17.40
2022-12-18T00:10:00.316Z,17.40
2022-12-18T00:11:08.822Z,17.40
2022-12-18T00:13:03.772Z,17.40
2022-12-18T00:14:00.413Z,17.40
2022-12-18T00:15:00.343Z,17.40
2022-12-18T00:16:04.605Z,17.40
2022-12-18T00:17:00.313Z,17.40
2022-12-18T00:18:00.297Z,17.40
2022-12-18T00:19:00.946Z,17.40
2022-12-18T00:20:00.314Z,17.40
2022-12-18T00:21:01.348Z,15.70
2022-12-18T00:22:00.300Z,15.70
2022-12-18T00:23:00.304Z,15.70
2022-12-18T00:24:00.370Z,15.70
2022-12-18T00:25:00.325Z,15.70
2022-12-18T00:26:01.065Z,15.70
2022-12-18T00:27:00.377Z,15.70
2022-12-18T00:28:00.604Z,15.70
2022-12-18T00:29:02.680Z,15.70
2022-12-18T00:30:00.317Z,15.70
2022-12-18T00:31:03.053Z,15.70
2022-12-18T00:32:00.377Z,15.70
2022-12-18T00:33:00.377Z,15.70
2022-12-18T00:34:00.668Z,15.70
2022-12-18T00:35:00.310Z,15.70
2022-12-18T00:36:02.103Z,15.70
2022-12-18T00:37:00.321Z,15.70
2022-12-18T00:38:00.312Z,15.70
2022-12-18T00:39:01.374Z,15.70
2022-12-18T00:40:00.435Z,15.70
2022-12-18T00:41:00.337Z,15.70
2022-12-18T00:42:00.356Z,15.70
2022-12-18T00:43:00.319Z,15.70
2022-12-18T00:44:00.574Z,15.70
2022-12-18T00:45:00.323Z,15.70
2022-12-18T00:46:00.492Z,15.70
2022-12-18T00:47:01.395Z,15.70
2022-12-18T00:48:00.399Z,15.70
2022-12-18T00:49:00.372Z,15.70
2022-12-18T00:50:00.409Z,15.70
2022-12-18T00:51:00.364Z,15.70
2022-12-18T00:52:00.307Z,15.70
2022-12-18T00:53:00.313Z,15.70
2022-12-18T00:54:00.314Z,15.70
2022-12-18T00:55:05.812Z,15.70
2022-12-18T00:56:00.320Z,15.70
2022-12-18T00:57:00.334Z,15.70
2022-12-18T00:58:00.305Z,15.70
2022-12-18T00:59:00.326Z,15.70
2022-12-18T01:00:00.489Z,15.70
2022-12-18T01:01:00.472Z,15.70
2022-12-18T01:02:00.444Z,15.70
2022-12-18T01:03:00.394Z,15.70
2022-12-18T01:04:01.255Z,15.70
2022-12-18T01:05:00.536Z,15.70
2022-12-18T01:06:05.257Z,15.70
2022-12-18T01:07:00.378Z,15.70
2022-12-18T01:08:00.327Z,15.70
2022-12-18T01:09:00.329Z,15.70
2022-12-18T01:10:00.300Z,15.70
2022-12-18T01:11:00.862Z,15.70
2022-12-18T01:12:00.674Z,15.70
2022-12-18T01:13:00.343Z,15.70
2022-12-18T01:14:00.319Z,15.70
2022-12-18T01:15:00.425Z,15.70
2022-12-18T01:16:00.440Z,15.70
2022-12-18T01:17:00.318Z,15.70
2022-12-18T01:18:00.334Z,15.70
2022-12-18T01:19:00.316Z,15.70
2022-12-18T01:20:00.358Z,15.70
2022-12-18T01:21:00.342Z,19.00
2022-12-18T01:22:00.384Z,19.00
2022-12-18T01:23:00.345Z,19.00
2022-12-18T01:24:00.556Z,19.00
2022-12-18T01:25:00.333Z,19.00
2022-12-18T01:26:10.240Z,19.00
2022-12-18T01:27:00.315Z,19.00
2022-12-18T01:28:00.321Z,19.00
2022-12-18T01:29:00.365Z,19.00
2022-12-18T01:30:00.435Z,19.00
2022-12-18T01:31:10.215Z,19.00
2022-12-18T01:32:00.366Z,19.00
2022-12-18T01:33:00.321Z,19.00
2022-12-18T01:34:01.039Z,19.00
2022-12-18T01:35:00.305Z,19.00
2022-12-18T01:36:00.317Z,19.00
2022-12-18T01:37:02.063Z,19.00
2022-12-18T01:38:00.334Z,19.00
2022-12-18T01:39:01.168Z,19.00
2022-12-18T01:40:00.321Z,19.00
2022-12-18T01:41:01.397Z,19.00
2022-12-18T01:42:02.566Z,19.00
2022-12-18T01:43:00.304Z,19.00
2022-12-18T01:44:00.328Z,19.00
2022-12-18T01:45:01.365Z,19.00
2022-12-18T01:46:00.353Z,19.00
2022-12-18T01:47:00.383Z,19.00
2022-12-18T01:48:06.267Z,19.00
2022-12-18T01:49:01.164Z,19.00
2022-12-18T01:50:04.658Z,19.00
2022-12-18T01:51:01.148Z,17.70
2022-12-18T01:52:00.321Z,17.70
2022-12-18T01:53:03.767Z,17.70
2022-12-18T01:54:00.343Z,17.70
2022-12-18T01:55:01.630Z,17.70
2022-12-18T01:56:00.416Z,17.70
2022-12-18T01:57:00.397Z,17.70
2022-12-18T01:58:00.798Z,17.70
2022-12-18T01:59:02.681Z,17.70
2022-12-18T02:00:02.566Z,17.70
2022-12-18T02:01:00.375Z,17.70
2022-12-18T02:02:00.648Z,17.70
2022-12-18T02:03:00.464Z,17.70
2022-12-18T02:04:10.225Z,17.70
2022-12-18T02:05:00.513Z,17.70
2022-12-18T02:06:08.030Z,17.70
2022-12-18T02:07:10.229Z,17.70
2022-12-18T02:08:03.570Z,17.70
2022-12-18T02:09:03.621Z,17.70
2022-12-18T02:10:04.969Z,17.70
2022-12-18T02:11:06.533Z,17.70
2022-12-18T02:12:00.295Z,17.70
2022-12-18T02:13:10.222Z,17.70
2022-12-18T02:14:10.226Z,17.70
2022-12-18T02:15:06.870Z,17.70
2022-12-18T02:16:00.379Z,17.70
2022-12-18T02:17:10.237Z,17.70
2022-12-18T02:18:06.088Z,17.70
2022-12-18T02:19:06.078Z,17.70
2022-12-18T02:20:10.297Z,17.70
2022-12-18T02:21:07.789Z,15.90
2022-12-18T02:22:03.572Z,15.90
2022-12-18T02:23:01.327Z,15.90
2022-12-18T02:24:10.245Z,15.90
2022-12-18T02:25:01.350Z,15.90
2022-12-18T02:26:01.349Z,15.90
2022-12-18T02:27:04.875Z,15.90
2022-12-18T02:28:02.558Z,15.90
2022-12-18T02:29:02.370Z,15.90
2022-12-18T02:30:01.381Z,15.90
2022-12-18T02:31:02.637Z,15.90
2022-12-18T02:32:02.416Z,15.90
2022-12-18T02:33:01.201Z,15.90
2022-12-18T02:34:02.445Z,15.90
2022-12-18T02:35:02.325Z,15.90
2022-12-18T02:36:01.532Z,15.90
2022-12-18T02:37:02.572Z,15.90
2022-12-18T02:38:01.596Z,15.90
2022-12-18T02:39:01.470Z,15.90
2022-12-18T02:40:00.985Z,15.90
2022-12-18T02:41:00.452Z,15.90
2022-12-18T02:42:01.167Z,15.90
2022-12-18T02:43:07.284Z,15.90
2022-12-18T02:44:02.045Z,15.90
2022-12-18T02:45:00.308Z,15.90
2022-12-18T02:46:01.630Z,15.90
2022-12-18T02:47:00.486Z,15.90
2022-12-18T02:48:00.789Z,15.90
2022-12-18T02:49:06.303Z,15.90
2022-12-18T02:50:07.249Z,15.90
2022-12-18T02:51:07.308Z,15.60
2022-12-18T02:52:10.216Z,15.60
2022-12-18T02:53:03.585Z,15.60
2022-12-18T02:54:08.921Z,15.60
2022-12-18T02:55:10.262Z,15.60
2022-12-18T02:56:10.218Z,15.60
2022-12-18T02:57:05.470Z,15.60
2022-12-18T02:58:06.593Z,15.60
2022-12-18T02:59:10.259Z,15.60
2022-12-18T03:00:04.260Z,15.60
2022-12-18T03:01:01.368Z,15.60
2022-12-18T03:02:05.165Z,15.60
2022-12-18T03:03:01.385Z,15.60
2022-12-18T03:04:04.480Z,15.60
2022-12-18T03:05:07.542Z,15.60
2022-12-18T03:06:04.272Z,15.60
2022-12-18T03:07:03.131Z,15.60
2022-12-18T03:08:05.927Z,15.60
2022-12-18T03:09:02.301Z,15.60
2022-12-18T03:10:00.878Z,15.60
2022-12-18T03:11:01.999Z,15.60
2022-12-18T03:12:05.959Z,15.60
2022-12-18T03:13:04.558Z,15.60
2022-12-18T03:14:00.724Z,15.60
2022-12-18T03:15:01.324Z,15.60
2022-12-18T03:16:01.353Z,15.60
2022-12-18T03:17:04.079Z,15.60
2022-12-18T03:18:04.611Z,15.60
2022-12-18T03:19:03.542Z,15.60
2022-12-18T03:20:04.219Z,15.60
2022-12-18T03:21:03.436Z,17.70
2022-12-18T03:22:01.793Z,17.70
2022-12-18T03:23:04.050Z,17.70
2022-12-18T03:24:00.721Z,17.70
2022-12-18T03:25:03.029Z,17.70
2022-12-18T03:26:07.480Z,17.70
2022-12-18T03:27:02.411Z,17.70
2022-12-18T03:28:02.023Z,17.70
2022-12-18T03:29:02.933Z,17.70
2022-12-18T03:30:03.217Z,17.70
2022-12-18T03:31:01.589Z,17.70
2022-12-18T03:32:04.534Z,17.70
2022-12-18T03:33:10.240Z,17.70
2022-12-18T03:34:04.138Z,17.70
2022-12-18T03:35:03.418Z,17.70
2022-12-18T03:36:00.541Z,17.70
2022-12-18T03:37:01.069Z,17.70
2022-12-18T03:38:00.415Z,17.70
2022-12-18T03:39:00.382Z,17.70
2022-12-18T03:40:00.421Z,17.70
2022-12-18T03:41:10.213Z,17.70
2022-12-18T03:42:10.240Z,17.70
2022-12-18T03:43:06.704Z,17.70
2022-12-18T03:44:00.293Z,17.70
2022-12-18T03:45:00.343Z,17.70
2022-12-18T03:46:05.301Z,17.70
2022-12-18T03:47:10.236Z,17.70
2022-12-18T03:48:05.688Z,17.70
2022-12-18T03:49:05.827Z,17.70
2022-12-18T03:50:12.841Z,17.70
2022-12-18T03:51:04.711Z,20.80
2022-12-18T03:52:00.296Z,20.80
2022-12-18T03:53:03.934Z,20.80
2022-12-18T03:54:02.242Z,20.80
2022-12-18T03:55:02.200Z,20.80
2022-12-18T03:56:01.506Z,20.80
2022-12-18T03:57:04.705Z,20.80
2022-12-18T03:58:01.861Z,20.80
2022-12-18T03:59:02.031Z,20.80
2022-12-18T04:00:02.670Z,20.80
2022-12-18T04:01:02.138Z,20.80
2022-12-18T04:02:01.806Z,20.80
2022-12-18T04:03:01.248Z,20.80
2022-12-18T04:04:01.357Z,20.80
2022-12-18T04:05:02.559Z,20.80
2022-12-18T04:06:01.102Z,20.80
2022-12-18T04:07:00.827Z,20.80
2022-12-18T04:08:00.870Z,20.80
2022-12-18T04:09:00.389Z,20.80
2022-12-18T04:10:01.426Z,20.80
2022-12-18T04:11:00.738Z,20.80
2022-12-18T04:12:00.324Z,20.80
2022-12-18T04:13:00.308Z,20.80
2022-12-18T04:14:01.955Z,20.80
2022-12-18T04:15:00.324Z,20.80
2022-12-18T04:16:00.509Z,20.80
2022-12-18T04:17:00.352Z,20.80
2022-12-18T04:18:00.347Z,20.80
2022-12-18T04:19:00.318Z,20.80
2022-12-18T04:20:00.336Z,20.80
2022-12-18T04:21:00.328Z,21.80
2022-12-18T04:22:00.377Z,21.80
2022-12-18T04:23:00.319Z,21.80
2022-12-18T04:24:00.349Z,21.80
2022-12-18T04:25:00.298Z,21.80
2022-12-18T04:26:00.327Z,21.80
2022-12-18T04:27:00.350Z,21.80
2022-12-18T04:28:00.305Z,21.80
2022-12-18T04:29:00.383Z,21.80
2022-12-18T04:30:00.438Z,21.80
2022-12-18T04:31:00.356Z,21.80
2022-12-18T04:32:00.324Z,21.80
2022-12-18T04:33:00.305Z,21.80
2022-12-18T04:34:00.425Z,21.80
2022-12-18T04:35:00.334Z,21.80
2022-12-18T04:36:00.375Z,21.80
2022-12-18T04:37:00.459Z,21.80
2022-12-18T04:38:00.318Z,21.80
2022-12-18T04:39:00.352Z,21.80
2022-12-18T04:40:00.336Z,21.80
2022-12-18T04:41:00.332Z,21.80
2022-12-18T04:42:00.305Z,21.80
2022-12-18T04:43:00.342Z,21.80
2022-12-18T04:44:00.318Z,21.80
2022-12-18T04:45:00.373Z,21.80
2022-12-18T04:46:02.700Z,21.80
2022-12-18T04:47:00.328Z,21.80
2022-12-18T04:48:00.916Z,21.80
2022-12-18T04:49:00.331Z,21.80
2022-12-18T04:50:00.347Z,21.80
2022-12-18T04:51:00.325Z,20.90
2022-12-18T04:52:00.350Z,20.90
2022-12-18T04:53:00.310Z,20.90
2022-12-18T04:54:00.331Z,20.90
2022-12-18T04:55:00.315Z,20.90
2022-12-18T04:56:04.739Z,20.90
2022-12-18T04:57:00.315Z,20.90
2022-12-18T04:58:00.363Z,20.90
2022-12-18T04:59:00.302Z,20.90
2022-12-18T05:00:01.768Z,20.90
2022-12-18T05:01:00.579Z,20.90
2022-12-18T05:02:00.483Z,20.90
2022-12-18T05:03:01.032Z,20.90
2022-12-18T05:04:00.706Z,20.90
2022-12-18T05:05:00.321Z,20.90
2022-12-18T05:06:00.366Z,20.90
2022-12-18T05:07:00.363Z,20.90
2022-12-18T05:08:00.524Z,20.90
2022-12-18T05:09:00.377Z,20.90
2022-12-18T05:10:00.302Z,20.90
2022-12-18T05:11:03.734Z,20.90
2022-12-18T05:12:00.317Z,20.90
2022-12-18T05:13:01.216Z,20.90
2022-12-18T05:14:00.332Z,20.90
2022-12-18T05:15:00.311Z,20.90
2022-12-18T05:16:00.650Z,20.90
2022-12-18T05:17:01.190Z,20.90
2022-12-18T05:18:00.374Z,20.90
2022-12-18T05:19:00.320Z,20.90
2022-12-18T05:20:00.334Z,20.90
2022-12-18T05:21:00.462Z,18.30
2022-12-18T05:22:00.343Z,18.30
2022-12-18T05:23:00.305Z,18.30
2022-12-18T05:24:00.367Z,18.30
2022-12-18T05:25:00.317Z,18.30
2022-12-18T05:26:01.753Z,18.30
2022-12-18T05:27:00.392Z,18.30
2022-12-18T05:28:00.339Z,18.30
2022-12-18T05:29:00.323Z,18.30
2022-12-18T05:30:00.357Z,18.30
2022-12-18T05:31:01.295Z,18.30
2022-12-18T05:32:00.327Z,18.30
2022-12-18T05:33:00.343Z,18.30
2022-12-18T05:34:00.327Z,18.30
2022-12-18T05:35:00.332Z,18.30
2022-12-18T05:36:01.026Z,18.30
2022-12-18T05:37:00.307Z,18.30
2022-12-18T05:38:00.335Z,18.30
2022-12-18T05:39:00.493Z,18.30
2022-12-18T05:40:00.550Z,18.30
2022-12-18T05:41:00.537Z,18.30
2022-12-18T05:42:00.364Z,18.30
2022-12-18T05:43:00.322Z,18.30
2022-12-18T05:44:00.350Z,18.30
2022-12-18T05:45:00.353Z,18.30
2022-12-18T05:46:03.567Z,18.30
2022-12-18T05:47:00.358Z,18.30
2022-12-18T05:48:00.300Z,18.30
2022-12-18T05:49:00.550Z,18.30
2022-12-18T05:50:00.358Z,18.30
2022-12-18T05:51:10.239Z,16.00
2022-12-18T05:52:00.320Z,16.00
2022-12-18T05:53:00.338Z,16.00
2022-12-18T05:54:00.395Z,16.00
2022-12-18T05:55:00.330Z,16.00
2022-12-18T05:56:01.277Z,16.00
2022-12-18T05:57:00.348Z,16.00
2022-12-18T05:58:00.557Z,16.00
2022-12-18T05:59:00.334Z,16.00
2022-12-18T06:00:00.352Z,16.00
2022-12-18T06:01:10.227Z,16.00
2022-12-18T06:02:00.499Z,16.00
2022-12-18T06:03:00.749Z,16.00
2022-12-18T06:04:00.442Z,16.00
2022-12-18T06:05:00.353Z,16.00
2022-12-18T06:06:00.384Z,16.00
2022-12-18T06:07:00.307Z,16.00
2022-12-18T06:08:00.354Z,16.00
2022-12-18T06:09:00.313Z,16.00
2022-12-18T06:10:00.407Z,16.00
2022-12-18T06:11:00.309Z,16.00
2022-12-18T06:12:00.388Z,16.00
2022-12-18T06:13:00.619Z,16.00
2022-12-18T06:14:00.923Z,16.00
2022-12-18T06:15:00.715Z,16.00
2022-12-18T06:16:04.458Z,16.00
2022-12-18T06:17:00.323Z,16.00
2022-12-18T06:18:00.506Z,16.00
2022-12-18T06:19:01.320Z,16.00
2022-12-18T06:20:00.313Z,16.00
2022-12-18T06:21:00.565Z,15.60
2022-12-18T06:22:00.306Z,15.60
2022-12-18T06:23:00.364Z,15.60
2022-12-18T06:24:00.330Z,15.60
2022-12-18T06:25:00.415Z,15.60
2022-12-18T06:26:09.285Z,15.60
2022-12-18T06:27:00.319Z,15.60
2022-12-18T06:28:00.324Z,15.60
2022-12-18T06:29:00.339Z,15.60
2022-12-18T06:30:00.450Z,15.60
2022-12-18T06:31:00.358Z,15.60
2022-12-18T06:32:00.395Z,15.60
2022-12-18T06:33:00.318Z,15.60
2022-12-18T06:34:02.251Z,15.60
2022-12-18T06:35:00.317Z,15.60
2022-12-18T06:36:01.354Z,15.60
2022-12-18T06:37:00.317Z,15.60
2022-12-18T06:38:01.078Z,15.60
2022-12-18T06:39:00.367Z,15.60
2022-12-18T06:40:00.318Z,15.60
2022-12-18T06:41:00.485Z,15.60
2022-12-18T06:42:00.348Z,15.60
2022-12-18T06:43:00.339Z,15.60
2022-12-18T06:44:00.416Z,15.60
2022-12-18T06:45:00.310Z,15.60
2022-12-18T06:46:00.926Z,15.60
2022-12-18T06:47:00.304Z,15.60
2022-12-18T06:48:00.666Z,15.60
2022-12-18T06:49:00.323Z,15.60
2022-12-18T06:50:00.351Z,15.60
2022-12-18T06:51:00.343Z,17.00
2022-12-18T06:52:00.331Z,17.00
2022-12-18T06:53:00.314Z,17.00
2022-12-18T06:54:00.374Z,17.00
2022-12-18T06:55:00.391Z,17.00
2022-12-18T06:56:06.426Z,17.00
2022-12-18T06:57:00.314Z,17.00
2022-12-18T06:58:00.345Z,17.00
2022-12-18T06:59:00.580Z,17.00
2022-12-18T07:00:00.336Z,17.00
2022-12-18T07:01:02.549Z,17.00
2022-12-18T07:02:00.513Z,17.00
2022-12-18T07:03:00.389Z,17.00
2022-12-18T07:04:00.306Z,17.00
2022-12-18T07:05:00.454Z,17.00
2022-12-18T07:06:00.388Z,17.00
2022-12-18T07:07:00.302Z,17.00
2022-12-18T07:08:00.305Z,17.00
2022-12-18T07:09:00.372Z,17.00
2022-12-18T07:10:00.385Z,17.00
2022-12-18T07:11:03.015Z,17.00
2022-12-18T07:12:00.315Z,17.00
2022-12-18T07:13:00.321Z,17.00
2022-12-18T07:14:00.376Z,17.00
2022-12-18T07:15:00.318Z,17.00
2022-12-18T07:16:04.509Z,17.00
2022-12-18T07:17:00.401Z,17.00
2022-12-18T07:18:00.307Z,17.00
2022-12-18T07:19:00.373Z,17.00
2022-12-18T07:20:00.360Z,17.00
2022-12-18T07:21:09.363Z,15.60
2022-12-18T07:22:00.453Z,15.60
2022-12-18T07:23:01.960Z,15.60
2022-12-18T07:24:00.310Z,15.60
2022-12-18T07:25:00.384Z,15.60
2022-12-18T07:26:01.195Z,15.60
2022-12-18T07:27:00.383Z,15.60
2022-12-18T07:28:00.665Z,15.60
2022-12-18T07:29:00.365Z,15.60
2022-12-18T07:30:00.310Z,15.60
2022-12-18T07:31:04.120Z,15.60
2022-12-18T07:32:00.382Z,15.60
2022-12-18T07:33:00.296Z,15.60
2022-12-18T07:34:00.336Z,15.60
2022-12-18T07:35:00.302Z,15.60
2022-12-18T07:36:01.258Z,15.60
2022-12-18T07:37:00.543Z,15.60
2022-12-18T07:38:00.332Z,15.60
2022-12-18T07:39:00.341Z,15.60
2022-12-18T07:40:00.316Z,15.60
2022-12-18T07:41:04.704Z,15.60
2022-12-18T07:42:00.315Z,15.60
2022-12-18T07:43:00.349Z,15.60
2022-12-18T07:44:00.382Z,15.60
2022-12-18T07:45:00.739Z,15.60
2022-12-18T07:46:00.385Z,15.60
2022-12-18T07:47:00.424Z,15.60
2022-12-18T07:48:00.336Z,15.60
2022-12-18T07:49:00.311Z,15.60
2022-12-18T07:50:00.346Z,15.60
2022-12-18T07:51:02.281Z,17.40
2022-12-18T07:52:00.336Z,17.40
2022-12-18T07:53:00.319Z,17.40
2022-12-18T07:54:00.312Z,17.40
2022-12-18T07:55:00.346Z,17.40
2022-12-18T07:56:26.126Z,17.40
2022-12-18T07:57:00.379Z,17.40
2022-12-18T07:58:01.389Z,17.40
2022-12-18T07:59:00.556Z,17.40
2022-12-18T08:00:00.363Z,17.40
2022-12-18T08:01:08.969Z,17.40
2022-12-18T08:02:00.468Z,17.40
2022-12-18T08:03:00.476Z,17.40
2022-12-18T08:04:00.384Z,17.40
2022-12-18T08:05:00.311Z,17.40
2022-12-18T08:06:02.093Z,17.40
2022-12-18T08:07:00.303Z,17.40
2022-12-18T08:08:00.394Z,17.40
2022-12-18T08:09:00.336Z,17.40
2022-12-18T08:10:00.319Z,17.40
2022-12-18T08:11:00.409Z,17.40
2022-12-18T08:12:00.338Z,17.40
2022-12-18T08:13:04.897Z,17.40
2022-12-18T08:14:00.333Z,17.40
2022-12-18T08:15:00.384Z,17.40
2022-12-18T08:16:02.114Z,17.40
2022-12-18T08:17:00.397Z,17.40
2022-12-18T08:18:00.327Z,17.40
2022-12-18T08:19:00.362Z,17.40
2022-12-18T08:20:00.316Z,17.40
2022-12-18T08:21:09.424Z,17.20
2022-12-18T08:22:00.338Z,17.20
2022-12-18T08:23:00.354Z,17.20
2022-12-18T08:24:00.744Z,17.20
2022-12-18T08:25:00.298Z,17.20
2022-12-18T08:26:00.322Z,17.20
2022-12-18T08:27:28.489Z,17.20
2022-12-18T08:28:00.313Z,17.20
2022-12-18T08:29:00.360Z,17.20
2022-12-18T08:30:00.332Z,17.20
2022-12-18T08:31:00.445Z,17.20
2022-12-18T08:32:00.386Z,17.20
2022-12-18T08:33:00.329Z,17.20
2022-12-18T08:34:00.321Z,17.20
2022-12-18T08:35:00.443Z,17.20
2022-12-18T08:36:01.220Z,17.20
2022-12-18T08:37:00.582Z,17.20
2022-12-18T08:38:00.310Z,17.20
2022-12-18T08:39:00.403Z,17.20
2022-12-18T08:40:00.347Z,17.20
2022-12-18T08:41:01.188Z,17.20
2022-12-18T08:42:03.091Z,17.20
2022-12-18T08:43:00.332Z,17.20
2022-12-18T08:44:00.329Z,17.20
2022-12-18T08:45:00.388Z,17.20
2022-12-18T08:46:00.363Z,17.20
2022-12-18T08:47:00.345Z,17.20
2022-12-18T08:48:00.304Z,17.20
2022-12-18T08:49:00.330Z,17.20
2022-12-18T08:50:00.332Z,17.20
2022-12-18T08:51:00.358Z,17.20
2022-12-18T08:52:00.507Z,17.20
2022-12-18T08:53:00.495Z,17.20
2022-12-18T08:54:00.396Z,17.20
2022-12-18T08:55:00.391Z,17.20
2022-12-18T08:56:00.314Z,17.20
2022-12-18T08:57:00.332Z,17.20
2022-12-18T08:58:00.459Z,17.20
2022-12-18T08:59:00.373Z,17.20
2022-12-18T09:00:00.341Z,17.20
2022-12-18T09:01:01.031Z,17.20
2022-12-18T09:02:00.513Z,17.20
2022-12-18T09:03:00.511Z,17.20
2022-12-18T09:04:00.338Z,17.20
2022-12-18T09:05:00.339Z,17.20
2022-12-18T09:06:00.757Z,17.20
2022-12-18T09:07:00.321Z,17.20
2022-12-18T09:08:00.300Z,17.20
2022-12-18T09:09:00.377Z,17.20
2022-12-18T09:10:00.377Z,17.20
2022-12-18T09:11:00.343Z,17.20
2022-12-18T09:12:00.306Z,17.20
2022-12-18T09:13:00.335Z,17.20
2022-12-18T09:14:01.026Z,17.20
2022-12-18T09:15:00.314Z,17.20
2022-12-18T09:16:02.819Z,17.20
2022-12-18T09:17:00.378Z,17.20
2022-12-18T09:18:00.306Z,17.20
2022-12-18T09:19:02.524Z,17.20
2022-12-18T09:20:00.322Z,17.20
2022-12-18T09:21:06.859Z,16.60
2022-12-18T09:22:00.331Z,16.60
2022-12-18T09:23:00.321Z,16.60
2022-12-18T09:24:00.423Z,16.60
2022-12-18T09:25:00.332Z,16.60
2022-12-18T09:26:00.315Z,16.60
2022-12-18T09:27:00.370Z,16.60
2022-12-18T09:28:00.335Z,16.60
2022-12-18T09:29:00.310Z,16.60
2022-12-18T09:30:00.531Z,16.60
2022-12-18T09:31:04.124Z,16.60
2022-12-18T09:32:00.346Z,16.60
2022-12-18T09:33:00.480Z,16.60
2022-12-18T09:34:00.337Z,16.60
2022-12-18T09:35:00.361Z,16.60
2022-12-18T09:36:01.292Z,16.60
2022-12-18T09:37:00.315Z,16.60
2022-12-18T09:38:00.331Z,16.60
2022-12-18T09:39:04.959Z,16.60
2022-12-18T09:40:00.326Z,16.60
2022-12-18T09:41:10.235Z,16.60
2022-12-18T09:42:00.475Z,16.60
2022-12-18T09:43:02.996Z,16.60
2022-12-18T09:44:10.225Z,16.60
2022-12-18T09:45:01.124Z,16.60
2022-12-18T09:46:02.947Z,16.60
2022-12-18T09:47:07.564Z,16.60
2022-12-18T09:48:00.497Z,16.60
2022-12-18T09:49:02.635Z,16.60
2022-12-18T09:50:04.560Z,16.60
2022-12-18T09:51:05.862Z,15.50
2022-12-18T09:52:04.623Z,15.50
2022-12-18T09:53:04.376Z,15.50
2022-12-18T09:54:04.418Z,15.50
2022-12-18T09:55:03.216Z,15.50
2022-12-18T09:56:01.609Z,15.50
2022-12-18T09:57:00.339Z,15.50
2022-12-18T09:58:07.612Z,15.50
2022-12-18T09:59:01.155Z,15.50
2022-12-18T10:00:10.014Z,15.50
2022-12-18T10:01:00.369Z,15.50
2022-12-18T10:02:00.436Z,15.50
2022-12-18T10:03:03.880Z,15.50
2022-12-18T10:04:00.561Z,15.50
2022-12-18T10:05:05.294Z,15.50
2022-12-18T10:06:06.090Z,15.50
2022-12-18T10:07:09.412Z,15.50
2022-12-18T10:08:10.244Z,15.50
2022-12-18T10:09:10.237Z,15.50
2022-12-18T10:10:06.540Z,15.50
2022-12-18T10:11:03.360Z,15.50
2022-12-18T10:12:10.231Z,15.50
2022-12-18T10:13:04.544Z,15.50
2022-12-18T10:14:06.691Z,15.50
2022-12-18T10:15:03.663Z,15.50
2022-12-18T10:16:10.262Z,15.50
2022-12-18T10:17:10.224Z,15.50
2022-12-18T10:18:03.639Z,15.50
2022-12-18T10:19:10.230Z,15.50
2022-12-18T10:20:03.592Z,15.50
2022-12-18T10:21:05.199Z,16.70
2022-12-18T10:22:09.734Z,16.70
2022-12-18T10:23:05.073Z,16.70
2022-12-18T10:24:00.389Z,16.70
2022-12-18T10:25:10.292Z,16.70
2022-12-18T10:26:09.416Z,16.70
2022-12-18T10:27:10.199Z,16.70
2022-12-18T10:28:07.795Z,16.70
2022-12-18T10:29:05.485Z,16.70
2022-12-18T10:30:00.965Z,16.70
2022-12-18T10:31:00.432Z,16.70
2022-12-18T10:32:00.335Z,16.70
2022-12-18T10:33:00.945Z,16.70
2022-12-18T10:34:00.455Z,16.70
2022-12-18T10:35:01.098Z,16.70
2022-12-18T10:36:00.473Z,16.70
2022-12-18T10:37:01.668Z,16.70
2022-12-18T10:38:01.962Z,16.70
2022-12-18T10:39:10.253Z,16.70
2022-12-18T10:40:10.253Z,16.70
2022-12-18T10:41:01.640Z,16.70
2022-12-18T10:42:10.241Z,16.70
2022-12-18T10:43:05.055Z,16.70
2022-12-18T10:44:10.221Z,16.70
2022-12-18T10:45:05.878Z,16.70
2022-12-18T10:46:00.339Z,16.70
2022-12-18T10:47:08.689Z,16.70
2022-12-18T10:48:00.676Z,16.70
2022-12-18T10:49:01.420Z,16.70
2022-12-18T10:50:00.990Z,16.70
2022-12-18T10:51:12.319Z,18.20
2022-12-18T10:52:05.203Z,18.20
2022-12-18T10:53:01.429Z,18.20
2022-12-18T10:54:00.318Z,18.20
2022-12-18T10:55:02.420Z,18.20
2022-12-18T10:56:02.105Z,18.20
2022-12-18T10:57:10.232Z,18.20
2022-12-18T10:58:10.227Z,18.20
2022-12-18T10:59:01.785Z,18.20
2022-12-18T11:00:10.257Z,18.20
2022-12-18T11:01:09.190Z,18.20
2022-12-18T11:02:00.406Z,18.20
2022-12-18T11:03:00.615Z,18.20
2022-12-18T11:04:02.900Z,18.20
2022-12-18T11:05:00.904Z,18.20
2022-12-18T11:06:05.231Z,18.20
2022-12-18T11:07:01.441Z,18.20
2022-12-18T11:08:00.883Z,18.20
2022-12-18T11:09:02.032Z,18.20
2022-12-18T11:10:00.889Z,18.20
2022-12-18T11:11:00.673Z,18.20
2022-12-18T11:12:02.128Z,18.20
2022-12-18T11:13:10.024Z,18.20
2022-12-18T11:14:04.535Z,18.20
2022-12-18T11:15:00.342Z,18.20
2022-12-18T11:16:00.585Z,18.20
2022-12-18T11:17:25.513Z,18.20
2022-12-18T11:18:00.379Z,18.20
2022-12-18T11:19:10.230Z,18.20
2022-12-18T11:20:03.611Z,18.20
2022-12-18T11:21:07.148Z,15.50
2022-12-18T11:22:01.626Z,15.50
2022-12-18T11:23:01.344Z,15.50
2022-12-18T11:24:00.435Z,15.50
2022-12-18T11:25:30.961Z,15.50
2022-12-18T11:26:01.564Z,15.50
2022-12-18T11:27:01.713Z,15.50
2022-12-18T11:28:01.564Z,15.50
2022-12-18T11:29:08.839Z,15.50
2022-12-18T11:30:10.236Z,15.50
2022-12-18T11:31:10.285Z,15.50
2022-12-18T11:32:10.241Z,15.50
2022-12-18T11:33:02.895Z,15.50
2022-12-18T11:34:28.159Z,15.50
2022-12-18T11:35:04.593Z,15.50
2022-12-18T11:36:01.914Z,15.50
2022-12-18T11:37:02.676Z,15.50
2022-12-18T11:38:04.553Z,15.50
2022-12-18T11:39:05.855Z,15.50
2022-12-18T11:40:02.846Z,15.50
2022-12-18T11:41:04.120Z,15.50
2022-12-18T11:42:07.697Z,15.50
2022-12-18T11:43:10.239Z,15.50
2022-12-18T11:44:01.986Z,15.50
2022-12-18T11:45:08.161Z,15.50
2022-12-18T11:46:14.783Z,15.50
2022-12-18T11:47:03.442Z,15.50
2022-12-18T11:48:00.306Z,15.50
2022-12-18T11:49:03.572Z,15.50
2022-12-18T11:50:01.168Z,15.50
2022-12-18T11:51:02.737Z,18.10
2022-12-18T11:52:09.416Z,18.10
2022-12-18T11:53:05.599Z,18.10
2022-12-18T11:54:00.864Z,18.10
2022-12-18T11:55:01.536Z,18.10
2022-12-18T11:56:10.217Z,18.10
2022-12-18T11:57:10.251Z,18.10
2022-12-18T11:58:05.660Z,18.10
2022-12-18T11:59:10.234Z,18.10
2022-12-18T12:00:01.378Z,18.10
2022-12-18T12:01:07.457Z,18.10
2022-12-18T12:02:00.472Z,18.10
2022-12-18T12:03:00.400Z,18.10
2022-12-18T12:04:07.652Z,18.10
2022-12-18T12:05:10.242Z,18.10
2022-12-18T12:06:10.236Z,18.10
2022-12-18T12:07:07.847Z,18.10
2022-12-18T12:08:10.234Z,18.10
2022-12-18T12:09:00.300Z,18.10
2022-12-18T12:10:10.250Z,18.10
2022-12-18T12:11:10.227Z,18.10
2022-12-18T12:12:10.224Z,18.10
2022-12-18T12:13:01.333Z,18.10
2022-12-18T12:14:10.225Z,18.10
2022-12-18T12:15:05.995Z,18.10
2022-12-18T12:16:10.277Z,18.10
2022-12-18T12:17:01.327Z,18.10
2022-12-18T12:18:11.665Z,18.10
2022-12-18T12:19:01.360Z,18.10
2022-12-18T12:20:10.225Z,18.10
2022-12-18T12:21:00.295Z,18.10
2022-12-18T12:22:07.334Z,18.50
2022-12-18T12:23:06.050Z,18.50
2022-12-18T12:24:09.129Z,18.50
2022-12-18T12:25:01.320Z,18.50
2022-12-18T12:26:03.988Z,18.50
2022-12-18T12:27:00.332Z,18.50
2022-12-18T12:28:01.346Z,18.50
2022-12-18T12:29:05.610Z,18.50
2022-12-18T12:30:00.296Z,18.50
2022-12-18T12:31:00.352Z,18.50
2022-12-18T12:32:10.224Z,18.50
2022-12-18T12:33:00.294Z,18.50
2022-12-18T12:34:08.726Z,18.50
2022-12-18T12:35:10.261Z,18.50
2022-12-18T12:36:07.885Z,18.50
2022-12-18T12:37:08.093Z,18.50
2022-12-18T12:38:01.324Z,18.50
2022-12-18T12:39:03.115Z,18.50
2022-12-18T12:40:10.992Z,18.50
2022-12-18T12:41:04.047Z,18.50
2022-12-18T12:42:01.554Z,18.50
2022-12-18T12:43:03.472Z,18.50
2022-12-18T12:44:03.403Z,18.50
2022-12-18T12:45:01.581Z,18.50
2022-12-18T12:46:03.358Z,18.50
2022-12-18T12:47:07.102Z,18.50
2022-12-18T12:48:02.268Z,18.50
2022-12-18T12:49:02.380Z,18.50
2022-12-18T12:50:02.313Z,18.50
2022-12-18T12:51:03.157Z,18.50
2022-12-18T12:52:04.302Z,19.30
2022-12-18T12:53:01.447Z,19.30